createdAt,value
2022-08-30T00:00:14.845Z,18.39
2022-08-30T00:01:14.849Z,18.36
2022-08-30T00:02:14.899Z,18.35
2022-08-30T00:03:15.096Z,18.39
2022-08-30T00:04:14.865Z,18.39
2022-08-30T00:05:14.857Z,18.41
2022-08-30T00:06:14.863Z,18.36
2022-08-30T00:07:14.873Z,18.36
2022-08-30T00:08:14.908Z,18.37
2022-08-30T00:09:14.874Z,18.36
2022-08-30T00:10:14.871Z,18.33
2022-08-30T00:11:14.866Z,18.26
2022-08-30T00:12:14.879Z,18.33
2022-08-30T00:13:14.965Z,18.29
2022-08-30T00:14:14.903Z,18.33
2022-08-30T00:15:14.874Z,18.32
2022-08-30T00:16:14.999Z,18.29
2022-08-30T00:17:14.906Z,18.30
2022-08-30T00:18:14.905Z,18.18
2022-08-30T00:19:14.892Z,18.20
2022-08-30T00:20:14.889Z,18.27
2022-08-30T00:21:14.895Z,18.20
2022-08-30T00:22:14.912Z,18.17
2022-08-30T00:23:14.996Z,18.32
2022-08-30T00:24:14.915Z,18.17
2022-08-30T00:25:14.898Z,18.17
2022-08-30T00:26:14.916Z,18.32
2022-08-30T00:27:14.929Z,18.23
2022-08-30T00:28:14.916Z,18.35
2022-08-30T00:29:14.908Z,18.23
2022-08-30T00:30:14.928Z,18.23
2022-08-30T00:31:15.574Z,18.25
2022-08-30T00:32:14.934Z,18.18
2022-08-30T00:33:14.922Z,18.18
2022-08-30T00:34:14.950Z,18.21
2022-08-30T00:35:14.924Z,18.26
2022-08-30T00:36:14.948Z,18.15
2022-08-30T00:37:14.940Z,18.14
2022-08-30T00:38:14.935Z,18.17
2022-08-30T00:39:14.966Z,18.20
2022-08-30T00:40:14.975Z,18.17
2022-08-30T00:41:14.960Z,18.20
2022-08-30T00:42:14.941Z,18.20
2022-08-30T00:43:15.057Z,18.20
2022-08-30T00:44:14.951Z,18.20
2022-08-30T00:45:14.980Z,18.12
2022-08-30T00:46:15.013Z,18.20
2022-08-30T00:47:14.961Z,18.14
2022-08-30T00:48:14.961Z,18.17
2022-08-30T00:49:14.961Z,18.15
2022-08-30T00:50:14.983Z,18.17
2022-08-30T00:51:14.989Z,18.07
2022-08-30T00:52:14.974Z,18.11
2022-08-30T00:53:14.975Z,18.11
2022-08-30T00:54:14.971Z,18.14
2022-08-30T00:55:14.979Z,18.02
2022-08-30T00:56:14.976Z,17.97
2022-08-30T00:57:15.003Z,17.97
2022-08-30T00:58:14.976Z,17.99
2022-08-30T00:59:14.991Z,18.05
2022-08-30T01:00:14.988Z,18.03
2022-08-30T01:01:15.048Z,18.02
2022-08-30T01:02:15.044Z,18.03
2022-08-30T01:03:15.060Z,18.02
2022-08-30T01:04:15.009Z,18.03
2022-08-30T01:05:15.989Z,17.99
2022-08-30T01:06:15.003Z,18.00
2022-08-30T01:07:15.023Z,17.97
2022-08-30T01:08:15.031Z,17.97
2022-08-30T01:09:15.034Z,17.99
2022-08-30T01:10:15.029Z,17.93
2022-08-30T01:11:15.025Z,17.99
2022-08-30T01:12:15.036Z,17.96
2022-08-30T01:13:15.204Z,17.92
2022-08-30T01:14:15.045Z,17.93
2022-08-30T01:15:15.048Z,17.92
2022-08-30T01:16:15.077Z,17.90
2022-08-30T01:17:15.041Z,17.93
2022-08-30T01:18:15.043Z,17.87
2022-08-30T01:19:15.049Z,17.90
2022-08-30T01:20:15.045Z,17.86
2022-08-30T01:21:15.071Z,17.90
2022-08-30T01:22:15.053Z,17.99
2022-08-30T01:23:15.185Z,17.90
2022-08-30T01:24:15.058Z,17.92
2022-08-30T01:25:15.061Z,17.87
2022-08-30T01:26:15.945Z,17.82
2022-08-30T01:27:15.063Z,17.90
2022-08-30T01:28:15.070Z,17.84
2022-08-30T01:29:15.057Z,17.90
2022-08-30T01:30:15.067Z,17.86
2022-08-30T01:31:15.152Z,17.90
2022-08-30T01:32:16.966Z,17.84
2022-08-30T01:33:15.288Z,17.81
2022-08-30T01:34:15.080Z,17.79
2022-08-30T01:35:15.080Z,17.75
2022-08-30T01:36:15.076Z,17.75
2022-08-30T01:37:15.097Z,17.75
2022-08-30T01:38:15.090Z,17.79
2022-08-30T01:39:15.095Z,17.78
2022-08-30T01:40:15.140Z,17.74
2022-08-30T01:41:15.091Z,17.74
2022-08-30T01:42:15.104Z,17.74
2022-08-30T01:43:15.360Z,17.74
2022-08-30T01:44:15.102Z,17.70
2022-08-30T01:45:15.112Z,17.70
2022-08-30T01:46:15.149Z,17.70
2022-08-30T01:47:15.099Z,17.68
2022-08-30T01:48:15.120Z,17.75
2022-08-30T01:49:15.131Z,17.70
2022-08-30T01:52:11.814Z,17.74
2022-08-30T01:52:46.692Z,17.68
2022-08-30T01:53:46.714Z,17.70
2022-08-30T01:54:46.720Z,17.64
2022-08-30T01:55:46.698Z,17.75
2022-08-30T01:56:46.730Z,17.72
2022-08-30T01:57:46.702Z,17.72
2022-08-30T01:58:46.709Z,17.63
2022-08-30T01:59:46.718Z,17.64
2022-08-30T02:00:46.726Z,17.70
2022-08-30T02:01:46.756Z,17.72
2022-08-30T02:02:46.714Z,17.68
2022-08-30T02:03:47.764Z,17.59
2022-08-30T02:04:46.738Z,17.55
2022-08-30T02:05:46.727Z,17.62
2022-08-30T02:06:46.729Z,17.56
2022-08-30T02:07:46.739Z,17.56
2022-08-30T02:08:46.727Z,17.58
2022-08-30T02:09:46.740Z,17.58
2022-08-30T02:10:46.737Z,17.54
2022-08-30T02:11:46.758Z,17.58
2022-08-30T02:12:46.734Z,17.52
2022-08-30T02:13:46.758Z,17.56
2022-08-30T02:14:46.747Z,17.56
2022-08-30T02:15:46.757Z,17.49
2022-08-30T02:16:46.824Z,17.55
2022-08-30T02:17:46.773Z,17.59
2022-08-30T02:18:46.759Z,17.52
2022-08-30T02:19:46.770Z,17.54
2022-08-30T02:20:46.780Z,17.55
2022-08-30T02:21:46.766Z,17.56
2022-08-30T02:22:48.383Z,17.58
2022-08-30T02:23:46.777Z,17.54
2022-08-30T02:24:46.781Z,17.54
2022-08-30T02:25:46.793Z,17.54
2022-08-30T02:26:46.778Z,17.59
2022-08-30T02:27:46.788Z,17.46
2022-08-30T02:28:50.125Z,17.51
2022-08-30T02:29:46.790Z,17.49
2022-08-30T02:30:46.844Z,17.43
2022-08-30T02:31:46.801Z,17.44
2022-08-30T02:32:46.796Z,17.49
2022-08-30T02:33:46.792Z,17.44
2022-08-30T02:34:46.814Z,17.44
2022-08-30T02:35:46.799Z,17.46
2022-08-30T02:36:46.809Z,17.46
2022-08-30T02:37:46.820Z,17.49
2022-08-30T02:38:46.811Z,17.46
2022-08-30T02:39:46.809Z,17.44
2022-08-30T02:40:46.900Z,17.46
2022-08-30T02:41:46.826Z,17.44
2022-08-30T02:42:46.860Z,17.49
2022-08-30T02:43:46.811Z,17.48
2022-08-30T02:44:46.811Z,17.48
2022-08-30T02:45:46.872Z,17.43
2022-08-30T02:46:46.834Z,17.34
2022-08-30T02:47:47.289Z,17.46
2022-08-30T02:48:46.834Z,17.40
2022-08-30T02:49:46.834Z,17.36
2022-08-30T02:50:46.831Z,17.41
2022-08-30T02:51:46.858Z,17.31
2022-08-30T02:52:48.358Z,17.37
2022-08-30T02:53:46.856Z,17.33
2022-08-30T02:54:46.848Z,17.36
2022-08-30T02:55:46.841Z,17.38
2022-08-30T02:56:46.839Z,17.31
2022-08-30T02:57:46.877Z,17.22
2022-08-30T02:58:46.853Z,17.23
2022-08-30T02:59:46.847Z,17.19
2022-08-30T03:00:46.865Z,17.18
2022-08-30T03:01:46.964Z,17.22
2022-08-30T03:02:46.853Z,17.21
2022-08-30T03:03:46.960Z,17.21
2022-08-30T03:04:46.874Z,17.23
2022-08-30T03:05:46.867Z,17.19
2022-08-30T03:06:46.881Z,17.21
2022-08-30T03:07:46.863Z,17.22
2022-08-30T03:08:46.899Z,17.16
2022-08-30T03:09:46.906Z,17.19
2022-08-30T03:10:46.884Z,17.15
2022-08-30T03:11:46.887Z,17.16
2022-08-30T03:12:46.872Z,17.21
2022-08-30T03:13:46.890Z,17.15
2022-08-30T03:14:46.898Z,17.14
2022-08-30T03:15:46.890Z,17.16
2022-08-30T03:16:46.939Z,17.23
2022-08-30T03:17:46.895Z,17.19
2022-08-30T03:18:46.888Z,17.12
2022-08-30T03:19:46.899Z,17.11
2022-08-30T03:20:54.301Z,17.14
2022-08-30T03:21:46.905Z,17.11
2022-08-30T03:22:46.896Z,17.11
2022-08-30T03:23:46.904Z,17.22
2022-08-30T03:24:46.897Z,17.23
2022-08-30T03:25:46.930Z,17.26
2022-08-30T03:26:46.917Z,17.21
2022-08-30T03:27:46.920Z,17.18
2022-08-30T03:28:46.904Z,17.19
2022-08-30T03:29:46.913Z,17.22
2022-08-30T03:30:46.926Z,17.19
2022-08-30T03:31:53.223Z,17.23
2022-08-30T03:32:46.905Z,17.23
2022-08-30T03:33:46.908Z,17.15
2022-08-30T03:34:46.930Z,17.21
2022-08-30T03:35:46.918Z,17.21
2022-08-30T03:36:46.932Z,17.22
2022-08-30T03:37:46.951Z,17.21
2022-08-30T03:38:46.948Z,17.23
2022-08-30T03:39:46.939Z,17.18
2022-08-30T03:40:46.941Z,17.25
2022-08-30T03:41:46.969Z,17.30
2022-08-30T03:42:46.976Z,17.38
2022-08-30T03:43:46.948Z,17.34
2022-08-30T03:44:47.808Z,17.36
2022-08-30T03:45:46.969Z,17.34
2022-08-30T03:46:46.950Z,17.31
2022-08-30T03:47:46.951Z,17.37
2022-08-30T03:48:46.974Z,17.31
2022-08-30T03:49:46.961Z,17.31
2022-08-30T03:50:46.964Z,17.31
2022-08-30T03:51:46.964Z,17.31
2022-08-30T03:52:46.960Z,17.34
2022-08-30T03:53:46.977Z,17.34
2022-08-30T03:54:46.967Z,17.33
2022-08-30T03:55:46.970Z,17.38
2022-08-30T03:56:46.970Z,17.30
2022-08-30T03:57:46.967Z,17.36
2022-08-30T03:58:46.982Z,17.30
2022-08-30T03:59:46.975Z,17.33
2022-08-30T04:00:47.050Z,17.37
2022-08-30T04:01:47.008Z,17.31
2022-08-30T04:02:46.985Z,17.31
2022-08-30T04:03:46.985Z,17.31
2022-08-30T04:04:47.003Z,17.38
2022-08-30T04:05:46.979Z,17.33
2022-08-30T04:06:46.996Z,17.31
2022-08-30T04:07:47.003Z,17.28
2022-08-30T04:08:47.012Z,17.28
2022-08-30T04:09:47.001Z,17.23
2022-08-30T04:10:47.026Z,17.26
2022-08-30T04:11:47.035Z,17.26
2022-08-30T04:12:49.698Z,17.26
2022-08-30T04:13:47.013Z,17.25
2022-08-30T04:14:47.019Z,17.16
2022-08-30T04:15:47.013Z,17.15
2022-08-30T04:16:47.076Z,17.16
2022-08-30T04:17:47.025Z,17.11
2022-08-30T04:18:47.024Z,17.16
2022-08-30T04:19:47.010Z,17.08
2022-08-30T04:20:47.047Z,17.21
2022-08-30T04:21:47.030Z,17.22
2022-08-30T04:22:47.019Z,17.12
2022-08-30T04:23:47.019Z,17.12
2022-08-30T04:24:47.027Z,17.19
2022-08-30T04:25:47.027Z,17.19
2022-08-30T04:26:47.057Z,17.16
2022-08-30T04:27:47.040Z,17.18
2022-08-30T04:28:47.029Z,17.15
2022-08-30T04:29:47.051Z,17.22
2022-08-30T04:30:47.034Z,17.19
2022-08-30T04:31:47.115Z,17.16
2022-08-30T04:32:47.064Z,17.16
2022-08-30T04:33:47.038Z,17.15
2022-08-30T04:34:47.040Z,17.16
2022-08-30T04:35:47.045Z,17.22
2022-08-30T04:36:48.193Z,17.21
2022-08-30T04:37:47.058Z,17.18
2022-08-30T04:38:47.065Z,17.15
2022-08-30T04:39:47.051Z,17.18
2022-08-30T04:40:47.110Z,17.12
2022-08-30T04:41:47.062Z,17.22
2022-08-30T04:42:47.075Z,17.25
2022-08-30T04:43:47.087Z,17.23
2022-08-30T04:44:47.057Z,17.23
2022-08-30T04:45:47.157Z,17.15
2022-08-30T04:46:47.070Z,17.16
2022-08-30T04:47:47.079Z,17.22
2022-08-30T04:48:47.078Z,17.16
2022-08-30T04:49:47.068Z,17.18
2022-08-30T04:50:47.081Z,17.11
2022-08-30T04:51:47.090Z,17.08
2022-08-30T04:52:47.077Z,17.04
2022-08-30T04:53:47.087Z,17.03
2022-08-30T04:54:47.090Z,17.07
2022-08-30T04:55:47.080Z,17.03
2022-08-30T04:56:47.111Z,17.03
2022-08-30T04:57:47.112Z,17.15
2022-08-30T04:58:47.088Z,17.03
2022-08-30T04:59:47.108Z,17.11
2022-08-30T05:00:47.150Z,17.11
2022-08-30T05:01:47.152Z,17.11
2022-08-30T05:02:47.192Z,17.12
2022-08-30T05:03:47.131Z,17.16
2022-08-30T05:04:47.122Z,17.12
2022-08-30T05:05:47.109Z,17.14
2022-08-30T05:06:47.100Z,17.16
2022-08-30T05:07:47.106Z,17.14
2022-08-30T05:08:47.127Z,17.19
2022-08-30T05:09:47.129Z,17.22
2022-08-30T05:10:47.110Z,17.19
2022-08-30T05:11:47.118Z,17.16
2022-08-30T05:12:47.129Z,17.18
2022-08-30T05:13:47.129Z,17.22
2022-08-30T05:14:47.153Z,17.30
2022-08-30T05:15:47.719Z,17.38
2022-08-30T05:16:47.841Z,17.36
2022-08-30T05:17:47.969Z,17.33
2022-08-30T05:18:49.036Z,17.34
2022-08-30T05:19:47.345Z,17.43
2022-08-30T05:20:47.229Z,17.46
2022-08-30T05:21:47.138Z,17.44
2022-08-30T05:22:47.150Z,17.52
2022-08-30T05:23:47.143Z,17.59
2022-08-30T05:24:47.162Z,17.58
2022-08-30T05:25:47.139Z,17.63
2022-08-30T05:27:47.150Z,17.64
2022-08-30T05:28:47.167Z,17.70
2022-08-30T05:29:47.149Z,17.70
2022-08-30T05:30:47.152Z,17.75
2022-08-30T05:31:47.205Z,17.77
2022-08-30T05:32:47.160Z,17.75
2022-08-30T05:33:47.169Z,17.75
2022-08-30T05:34:47.159Z,17.74
2022-08-30T05:35:47.172Z,17.77
2022-08-30T05:36:47.167Z,17.81
2022-08-30T05:37:47.166Z,17.95
2022-08-30T05:38:47.163Z,17.97
2022-08-30T05:39:51.778Z,17.99
2022-08-30T05:40:47.214Z,17.96
2022-08-30T05:41:47.185Z,18.00
2022-08-30T05:42:47.199Z,17.97
2022-08-30T05:43:47.175Z,17.95
2022-08-30T05:44:47.224Z,17.96
2022-08-30T05:45:47.193Z,18.00
2022-08-30T05:46:47.187Z,18.10
2022-08-30T05:47:47.195Z,18.08
2022-08-30T05:48:47.184Z,18.05
2022-08-30T05:49:47.209Z,18.23
2022-08-30T05:50:47.197Z,18.21
2022-08-30T05:51:47.212Z,18.12
2022-08-30T05:52:47.198Z,18.18
2022-08-30T05:53:47.212Z,18.17
2022-08-30T05:54:47.206Z,18.32
2022-08-30T05:55:47.226Z,18.21
2022-08-30T05:56:47.216Z,18.30
2022-08-30T05:57:47.230Z,18.39
2022-08-30T05:58:47.222Z,18.35
2022-08-30T05:59:47.220Z,18.45
2022-08-30T06:00:47.234Z,18.42
2022-08-30T06:01:47.281Z,18.47
2022-08-30T06:02:47.258Z,18.41
2022-08-30T06:03:47.234Z,18.47
2022-08-30T06:04:47.239Z,18.48
2022-08-30T06:06:47.269Z,18.52
2022-08-30T06:07:47.247Z,18.52
2022-08-30T06:08:47.242Z,18.57
2022-08-30T06:09:47.235Z,18.55
2022-08-30T06:10:47.247Z,18.72
2022-08-30T06:11:47.255Z,18.81
2022-08-30T06:12:47.251Z,18.75
2022-08-30T06:13:47.264Z,18.84
2022-08-30T06:14:47.263Z,19.02
2022-08-30T06:15:47.295Z,19.04
2022-08-30T06:16:47.278Z,19.14
2022-08-30T06:17:47.267Z,19.16
2022-08-30T06:18:47.259Z,19.28
2022-08-30T06:19:47.276Z,19.28
2022-08-30T06:20:47.268Z,19.36
2022-08-30T06:21:47.268Z,19.46
2022-08-30T06:22:47.293Z,19.43
2022-08-30T06:23:47.274Z,19.54
2022-08-30T06:24:57.404Z,19.59
2022-08-30T06:25:47.290Z,19.68
2022-08-30T06:26:47.275Z,19.77
2022-08-30T06:27:47.294Z,19.83
2022-08-30T06:28:47.317Z,19.98
2022-08-30T06:29:47.286Z,19.88
2022-08-30T06:30:47.292Z,20.01
2022-08-30T06:31:47.346Z,20.13
2022-08-30T06:32:47.301Z,20.10
2022-08-30T06:33:47.304Z,20.24
2022-08-30T06:34:47.313Z,20.28
2022-08-30T06:35:58.523Z,20.33
2022-08-30T06:36:47.303Z,20.47
2022-08-30T06:37:47.314Z,20.48
2022-08-30T06:38:47.320Z,20.38
2022-08-30T06:39:47.341Z,20.38
2022-08-30T06:40:47.356Z,20.42
2022-08-30T06:41:47.323Z,20.38
2022-08-30T06:42:47.328Z,20.26
2022-08-30T06:43:49.278Z,20.29
2022-08-30T06:44:47.365Z,20.10
2022-08-30T06:45:47.348Z,20.24
2022-08-30T06:46:47.430Z,20.11
2022-08-30T06:47:47.358Z,20.02
2022-08-30T06:48:48.427Z,19.98
2022-08-30T06:49:47.340Z,19.98
2022-08-30T06:50:47.361Z,19.92
2022-08-30T06:51:47.352Z,19.92
2022-08-30T06:52:47.408Z,19.88
2022-08-30T06:53:47.361Z,19.84
2022-08-30T06:54:47.366Z,19.95
2022-08-30T06:55:47.392Z,19.98
2022-08-30T06:57:00.625Z,20.18
2022-08-30T06:57:47.373Z,20.43
2022-08-30T06:58:47.390Z,20.66
2022-08-30T06:59:47.393Z,20.99
2022-08-30T07:00:47.396Z,21.34
2022-08-30T07:01:47.450Z,21.46
2022-08-30T07:02:47.451Z,21.83
2022-08-30T07:03:47.419Z,22.03
2022-08-30T07:04:47.412Z,22.22
2022-08-30T07:05:47.400Z,22.39
2022-08-30T07:06:47.427Z,22.60
2022-08-30T07:07:47.412Z,22.73
2022-08-30T07:08:47.431Z,22.67
2022-08-30T07:09:47.427Z,22.31
2022-08-30T07:10:47.442Z,21.96
2022-08-30T07:11:47.446Z,21.69
2022-08-30T07:12:47.442Z,21.49
2022-08-30T07:13:47.436Z,21.37
2022-08-30T07:14:47.447Z,21.38
2022-08-30T07:15:47.487Z,21.22
2022-08-30T07:16:47.455Z,21.21
2022-08-30T07:17:47.460Z,21.10
2022-08-30T07:18:47.488Z,20.98
2022-08-30T07:19:47.487Z,21.29
2022-08-30T07:20:47.476Z,21.65
2022-08-30T07:21:47.479Z,22.15
2022-08-30T07:22:47.503Z,22.40
2022-08-30T07:23:50.249Z,22.75
2022-08-30T07:24:47.500Z,22.95
2022-08-30T07:25:47.488Z,23.15
2022-08-30T07:26:47.500Z,23.20
2022-08-30T07:27:47.497Z,23.39
2022-08-30T07:28:47.516Z,23.63
2022-08-30T07:29:47.511Z,23.69
2022-08-30T07:30:47.505Z,23.69
2022-08-30T07:31:47.518Z,23.63
2022-08-30T07:32:47.521Z,23.57
2022-08-30T07:33:47.522Z,23.39
2022-08-30T07:34:47.520Z,23.31
2022-08-30T07:35:47.529Z,23.23
2022-08-30T07:36:47.536Z,23.12
2022-08-30T07:37:47.532Z,23.07
2022-08-30T07:38:47.547Z,23.12
2022-08-30T07:39:48.162Z,23.31
2022-08-30T07:40:47.607Z,23.57
2022-08-30T07:41:47.559Z,23.48
2022-08-30T07:42:47.574Z,23.50
2022-08-30T07:43:47.629Z,23.36
2022-08-30T07:44:47.583Z,23.39
2022-08-30T07:45:47.567Z,23.32
2022-08-30T07:46:55.561Z,23.28
2022-08-30T07:47:55.548Z,23.07
2022-08-30T07:50:33.469Z,23.00
2022-08-30T07:51:33.481Z,23.09
2022-08-30T07:52:34.183Z,23.33
2022-08-30T07:55:13.297Z,23.31
2022-08-30T07:57:53.243Z,23.60
2022-08-30T07:58:53.826Z,23.57
2022-08-30T07:59:53.859Z,23.66
2022-08-30T08:00:53.883Z,23.61
2022-08-30T08:01:53.977Z,23.57
2022-08-30T08:02:54.284Z,23.54
2022-08-30T08:03:54.992Z,23.48
2022-08-30T08:04:46.147Z,23.43
2022-08-30T08:05:46.152Z,23.39
2022-08-30T08:06:46.157Z,23.40
2022-08-30T08:07:46.161Z,23.42
2022-08-30T08:08:46.154Z,23.39
2022-08-30T08:09:46.159Z,23.23
2022-08-30T08:10:46.186Z,23.28
2022-08-30T08:11:46.172Z,23.27
2022-08-30T08:12:46.176Z,23.38
2022-08-30T08:13:53.897Z,23.40
2022-08-30T08:14:46.191Z,23.42
2022-08-30T08:15:46.248Z,23.42
2022-08-30T08:16:46.192Z,23.36
2022-08-30T08:17:46.185Z,23.28
2022-08-30T08:18:46.206Z,23.27
2022-08-30T08:19:46.214Z,23.22
2022-08-30T08:20:46.221Z,23.10
2022-08-30T08:21:46.222Z,23.09
2022-08-30T08:22:46.213Z,23.05
2022-08-30T08:23:46.230Z,23.10
2022-08-30T08:24:46.244Z,23.00
2022-08-30T08:25:46.248Z,22.94
2022-08-30T08:26:46.262Z,22.79
2022-08-30T08:27:46.260Z,22.80
2022-08-30T08:28:46.245Z,22.76
2022-08-30T08:29:46.276Z,22.75
2022-08-30T08:30:48.227Z,22.68
2022-08-30T08:31:46.330Z,22.76
2022-08-30T08:32:46.266Z,22.76
2022-08-30T08:33:46.268Z,22.72
2022-08-30T08:34:46.343Z,22.72
2022-08-30T08:35:46.267Z,22.75
2022-08-30T08:36:46.297Z,22.67
2022-08-30T08:37:46.286Z,22.60
2022-08-30T08:38:46.301Z,22.67
2022-08-30T08:39:46.291Z,22.62
2022-08-30T08:40:46.348Z,22.62
2022-08-30T08:41:46.291Z,22.62
2022-08-30T08:42:46.330Z,22.61
2022-08-30T08:43:46.316Z,22.58
2022-08-30T08:44:46.375Z,22.54
2022-08-30T08:45:46.317Z,22.45
2022-08-30T08:46:46.367Z,22.37
2022-08-30T08:47:46.335Z,22.37
2022-08-30T08:48:59.548Z,22.43
2022-08-30T08:49:46.350Z,22.42
2022-08-30T08:50:46.374Z,22.40
2022-08-30T08:51:46.350Z,22.35
2022-08-30T08:52:46.378Z,22.37
2022-08-30T08:53:47.207Z,22.39
2022-08-30T08:54:46.383Z,22.46
2022-08-30T08:56:46.372Z,22.42
2022-08-30T08:57:46.388Z,22.36
2022-08-30T08:58:46.389Z,22.40
2022-08-30T08:59:46.419Z,22.36
2022-08-30T09:00:46.398Z,22.36
2022-08-30T09:01:46.440Z,22.45
2022-08-30T09:02:46.415Z,22.35
2022-08-30T09:03:46.417Z,22.46
2022-08-30T09:04:46.472Z,22.35
2022-08-30T09:05:46.433Z,22.25
2022-08-30T09:06:46.431Z,22.24
2022-08-30T09:07:46.441Z,22.28
2022-08-30T09:08:46.434Z,22.28
2022-08-30T09:09:46.453Z,22.33
2022-08-30T09:10:50.841Z,22.30
2022-08-30T09:11:46.438Z,22.21
2022-08-30T09:12:46.446Z,22.24
2022-08-30T09:13:46.466Z,22.33
2022-08-30T09:14:46.736Z,22.24
2022-08-30T09:15:48.982Z,22.28
2022-08-30T09:16:46.474Z,22.31
2022-08-30T09:17:46.463Z,22.30
2022-08-30T09:18:49.023Z,22.30
2022-08-30T09:19:46.511Z,22.31
2022-08-30T09:20:46.529Z,22.25
2022-08-30T09:21:46.489Z,22.33
2022-08-30T09:22:46.809Z,22.33
2022-08-30T09:23:46.493Z,22.28
2022-08-30T09:24:46.505Z,22.27
2022-08-30T09:25:46.534Z,22.28
2022-08-30T09:26:46.536Z,22.22
2022-08-30T09:27:46.550Z,22.31
2022-08-30T09:28:46.518Z,22.27
2022-08-30T09:29:46.525Z,22.27
2022-08-30T09:30:46.574Z,22.25
2022-08-30T09:31:46.544Z,22.28
2022-08-30T09:32:46.541Z,22.28
2022-08-30T09:33:46.550Z,22.31
2022-08-30T09:34:46.566Z,22.33
2022-08-30T09:35:46.586Z,22.37
2022-08-30T09:36:46.559Z,22.46
2022-08-30T09:37:46.569Z,22.36
2022-08-30T09:38:46.575Z,22.45
2022-08-30T09:39:46.571Z,22.40
2022-08-30T09:40:46.682Z,22.42
2022-08-30T09:41:46.606Z,22.42
2022-08-30T09:42:46.595Z,22.36
2022-08-30T09:43:46.602Z,22.46
2022-08-30T09:44:46.609Z,22.47
2022-08-30T09:45:46.648Z,22.54
2022-08-30T09:46:46.612Z,22.57
2022-08-30T09:47:46.622Z,22.62
2022-08-30T09:48:46.613Z,22.65
2022-08-30T09:49:46.629Z,22.73
2022-08-30T09:50:46.642Z,22.75
2022-08-30T09:51:46.640Z,22.72
2022-08-30T09:52:46.647Z,22.75
2022-08-30T09:54:01.202Z,22.76
2022-08-30T09:54:46.654Z,22.83
2022-08-30T09:55:46.646Z,22.85
2022-08-30T09:56:46.675Z,22.90
2022-08-30T09:57:46.679Z,22.91
2022-08-30T09:58:46.661Z,22.95
2022-08-30T09:59:46.725Z,22.98
2022-08-30T10:00:46.682Z,22.98
2022-08-30T10:01:46.691Z,23.04
2022-08-30T10:02:46.703Z,23.07
2022-08-30T10:03:46.691Z,23.13
2022-08-30T10:04:46.702Z,23.10
2022-08-30T10:05:46.703Z,23.04
2022-08-30T10:06:46.713Z,23.13
2022-08-30T10:07:46.726Z,23.07
2022-08-30T10:08:46.743Z,23.13
2022-08-30T10:09:46.728Z,23.09
2022-08-30T10:10:46.730Z,23.10
2022-08-30T10:11:46.743Z,23.13
2022-08-30T10:12:46.750Z,23.15
2022-08-30T10:13:46.763Z,23.16
2022-08-30T10:14:46.740Z,23.22
2022-08-30T10:15:46.770Z,23.23
2022-08-30T10:16:46.757Z,23.22
2022-08-30T10:17:46.771Z,23.23
2022-08-30T10:18:46.796Z,23.19
2022-08-30T10:19:46.789Z,23.20
2022-08-30T10:20:46.785Z,23.22
2022-08-30T10:21:46.778Z,23.22
2022-08-30T10:22:46.800Z,23.32
2022-08-30T10:23:46.816Z,23.35
2022-08-30T10:24:46.805Z,23.22
2022-08-30T10:25:46.842Z,23.27
2022-08-30T10:26:46.822Z,23.32
2022-08-30T10:27:46.810Z,23.31
2022-08-30T10:28:47.133Z,23.39
2022-08-30T10:29:46.833Z,23.43
2022-08-30T10:30:46.834Z,23.65
2022-08-30T10:31:46.851Z,24.13
2022-08-30T10:32:46.889Z,24.76
2022-08-30T10:33:46.854Z,24.73
2022-08-30T10:34:46.869Z,24.73
2022-08-30T10:35:46.878Z,24.69
2022-08-30T10:36:46.888Z,24.64
2022-08-30T10:37:46.900Z,24.55
2022-08-30T10:38:46.894Z,24.47
2022-08-30T10:39:46.893Z,24.34
2022-08-30T10:40:46.931Z,24.32
2022-08-30T10:41:46.928Z,24.62
2022-08-30T10:42:46.921Z,24.67
2022-08-30T10:43:46.910Z,24.91
2022-08-30T10:44:46.917Z,25.15
2022-08-30T10:45:46.927Z,25.21
2022-08-30T10:46:46.950Z,25.14
2022-08-30T10:47:46.956Z,25.17
2022-08-30T10:48:47.485Z,25.06
2022-08-30T10:49:46.948Z,25.05
2022-08-30T10:50:46.975Z,25.13
2022-08-30T10:51:47.004Z,25.18
2022-08-30T10:52:47.007Z,25.14
2022-08-30T10:53:46.993Z,25.09
2022-08-30T10:54:46.995Z,25.18
2022-08-30T10:55:50.119Z,25.24
2022-08-30T10:56:47.019Z,25.25
2022-08-30T10:57:47.038Z,25.38
2022-08-30T10:58:47.044Z,25.43
2022-08-30T10:59:47.053Z,25.46
2022-08-30T11:00:47.068Z,25.70
2022-08-30T11:01:47.223Z,25.77
2022-08-30T11:02:47.088Z,25.72
2022-08-30T11:03:47.094Z,26.26
2022-08-30T11:04:47.077Z,26.94
2022-08-30T11:05:47.090Z,27.44
2022-08-30T11:06:55.095Z,27.99
2022-08-30T11:07:47.107Z,28.51
2022-08-30T11:08:47.111Z,28.85
2022-08-30T11:09:47.118Z,29.41
2022-08-30T11:10:47.856Z,29.42
2022-08-30T11:11:47.129Z,29.11
2022-08-30T11:12:47.154Z,28.67
2022-08-30T11:13:47.159Z,28.31
2022-08-30T11:14:47.165Z,28.14
2022-08-30T11:15:47.233Z,27.75
2022-08-30T11:16:48.361Z,27.50
2022-08-30T11:17:47.187Z,27.27
2022-08-30T11:18:51.205Z,27.10
2022-08-30T11:19:47.210Z,26.85
2022-08-30T11:20:47.227Z,26.65
2022-08-30T11:21:47.228Z,26.52
2022-08-30T11:22:47.240Z,26.47
2022-08-30T11:23:47.259Z,26.32
2022-08-30T11:24:47.274Z,26.13
2022-08-30T11:25:47.278Z,25.98
2022-08-30T11:26:47.281Z,25.92
2022-08-30T11:27:47.306Z,25.91
2022-08-30T11:28:47.310Z,25.91
2022-08-30T11:29:47.502Z,26.73
2022-08-30T11:30:47.320Z,26.65
2022-08-30T11:31:47.494Z,27.07
2022-08-30T11:32:47.338Z,27.78
2022-08-30T11:33:47.361Z,28.39
2022-08-30T11:34:47.384Z,29.05
2022-08-30T11:35:48.590Z,29.51
2022-08-30T11:36:47.371Z,30.16
2022-08-30T11:37:47.370Z,30.73
2022-08-30T11:38:47.375Z,31.13
2022-08-30T11:39:47.388Z,31.53
2022-08-30T11:40:47.410Z,31.65
2022-08-30T11:42:48.148Z,30.82
2022-08-30T11:43:47.417Z,30.47
2022-08-30T11:44:47.432Z,30.69
2022-08-30T11:45:47.497Z,31.32
2022-08-30T11:46:47.445Z,31.73
2022-08-30T11:47:47.485Z,31.88
2022-08-30T11:48:54.266Z,31.78
2022-08-30T11:49:47.475Z,31.34
2022-08-30T11:50:48.461Z,30.98
2022-08-30T11:52:08.559Z,30.82
2022-08-30T11:52:48.907Z,31.51
2022-08-30T11:53:47.506Z,31.92
2022-08-30T11:54:52.305Z,32.32
2022-08-30T11:55:47.541Z,32.60
2022-08-30T11:56:47.539Z,32.33
2022-08-30T11:57:47.561Z,32.23
2022-08-30T11:58:47.557Z,31.93
2022-08-30T11:59:47.574Z,31.51
2022-08-30T12:00:52.767Z,31.17
2022-08-30T12:01:51.083Z,30.77
2022-08-30T12:02:47.806Z,30.35
2022-08-30T12:03:47.716Z,29.89
2022-08-30T12:04:47.609Z,29.63
2022-08-30T12:05:48.167Z,29.26
2022-08-30T12:06:47.617Z,29.02
2022-08-30T12:07:47.637Z,28.76
2022-08-30T12:08:47.638Z,28.74
2022-08-30T12:09:47.661Z,28.71
2022-08-30T12:10:47.652Z,28.70
2022-08-30T12:11:47.666Z,28.51
2022-08-30T12:12:47.706Z,28.37
2022-08-30T12:13:47.692Z,28.37
2022-08-30T12:14:47.830Z,28.43
2022-08-30T12:15:47.698Z,28.29
2022-08-30T12:16:47.740Z,28.30
2022-08-30T12:17:47.704Z,28.31
2022-08-30T12:18:47.749Z,28.31
2022-08-30T12:19:50.267Z,28.36
2022-08-30T12:20:47.728Z,28.39
2022-08-30T12:21:47.744Z,28.56
2022-08-30T12:22:47.770Z,28.61
2022-08-30T12:23:47.747Z,28.67
2022-08-30T12:24:47.823Z,28.71
2022-08-30T12:25:47.814Z,28.74
2022-08-30T12:26:47.775Z,28.68
2022-08-30T12:27:47.792Z,28.70
2022-08-30T12:28:47.789Z,28.61
2022-08-30T12:29:47.794Z,28.58
2022-08-30T12:30:47.823Z,28.61
2022-08-30T12:31:47.913Z,28.59
2022-08-30T12:32:48.755Z,28.62
2022-08-30T12:33:47.825Z,28.62
2022-08-30T12:34:47.852Z,28.70
2022-08-30T12:35:47.871Z,28.64
2022-08-30T12:36:47.866Z,28.64
2022-08-30T12:37:47.863Z,28.56
2022-08-30T12:38:47.875Z,28.49
2022-08-30T12:39:52.702Z,28.49
2022-08-30T12:40:47.923Z,28.48
2022-08-30T12:41:47.898Z,28.33
2022-08-30T12:42:47.911Z,28.31
2022-08-30T12:43:48.522Z,28.22
2022-08-30T12:44:47.917Z,28.04
2022-08-30T12:45:50.610Z,27.92
2022-08-30T12:46:47.930Z,27.92
2022-08-30T12:47:47.947Z,27.96
2022-08-30T12:48:47.947Z,27.96
2022-08-30T12:49:47.950Z,27.92
2022-08-30T12:50:47.960Z,27.94
2022-08-30T12:51:47.966Z,27.78
2022-08-30T12:52:48.013Z,27.81
2022-08-30T12:53:47.985Z,27.81
2022-08-30T12:54:47.993Z,27.63
2022-08-30T12:55:48.007Z,27.62
2022-08-30T12:56:48.071Z,27.54
2022-08-30T12:57:48.023Z,27.54
2022-08-30T12:58:48.030Z,27.59
2022-08-30T12:59:54.104Z,27.47
2022-08-30T13:00:48.163Z,27.40
2022-08-30T13:01:48.117Z,27.41
2022-08-30T13:02:48.082Z,27.40